Time;durP1;ratioP1;P1;durP2;ratioP2;P2;SDS_P1;SDS_P2;PMS_P1;PMS_P2;Temp;Humidity;BMP_temperature;BMP_pressure;BME280_temperature;BME280_humidity;BME280_pressure;Samples;Min_cycle;Max_cycle;Signal;HPM_P1;HPM_P2
2022/04/22 00:00:30;;;;;;;31.20;19.87;;;11.90;99.00;;;11.87;68.95;94804.94;5060099;28;20897;-56
2022/04/22 00:02:58;;;;;;;30.03;18.43;;;11.90;98.90;;;11.87;69.34;94812.84;5059976;28;20458;-56
2022/04/22 00:05:25;;;;;;;27.53;17.53;;;11.80;99.10;;;11.86;69.69;94796.19;5060089;28;20478;-56
2022/04/22 00:07:52;;;;;;;24.13;17.20;;;11.80;99.30;;;11.86;69.50;94787.47;5055187;28;20459;-58
2022/04/22 00:10:19;;;;;;;32.03;18.30;;;11.80;99.20;;;11.83;69.39;94789.44;5053069;28;20483;-57
2022/04/22 00:12:47;;;;;;;30.47;19.20;;;11.80;99.20;;;11.83;69.70;94791.22;5055422;28;20460;-57
2022/04/22 00:15:16;;;;;;;31.33;17.07;;;11.80;99.30;;;11.80;69.82;94784.47;5054982;28;20490;-56
2022/04/22 00:17:43;;;;;;;26.07;17.70;;;11.80;99.30;;;11.80;69.76;94778.34;5062483;28;20451;-55
2022/04/22 00:20:12;;;;;;;27.30;18.27;;;11.80;99.60;;;11.79;69.72;94763.53;5051368;28;21007;-57
2022/04/22 00:22:40;;;;;;;28.13;17.60;;;11.80;99.60;;;11.77;70.17;94758.41;5052113;28;20455;-55
2022/04/22 00:25:10;;;;;;;28.00;16.73;;;11.80;99.80;;;11.71;69.86;94753.75;5059576;28;21078;-57
2022/04/22 00:27:38;;;;;;;30.80;17.73;;;11.80;99.60;;;11.72;70.33;94751.94;5056186;28;20455;-55
2022/04/22 00:30:07;;;;;;;30.37;16.40;;;11.70;99.90;;;11.69;70.26;94757.50;5052065;28;20566;-55
2022/04/22 00:32:36;;;;;;;25.73;15.97;;;11.70;99.80;;;11.68;70.31;94748.78;5054873;28;20940;-56
2022/04/22 00:35:03;;;;;;;21.60;14.27;;;11.70;99.90;;;11.65;70.27;94749.91;5058275;28;20490;-58
2022/04/22 00:37:31;;;;;;;26.23;14.73;;;11.70;99.90;;;11.65;70.37;94759.63;5052581;28;20487;-56
2022/04/22 00:39:58;;;;;;;22.97;14.17;;;11.70;99.90;;;11.64;70.73;94779.03;5047668;28;20472;-59
2022/04/22 00:42:28;;;;;;;29.47;15.10;;;11.60;99.90;;;11.64;70.58;94781.66;5056192;28;20517;-55
2022/04/22 00:44:57;;;;;;;24.00;14.37;;;11.60;99.90;;;11.63;70.90;94777.34;5058774;28;20470;-58
2022/04/22 00:47:24;;;;;;;20.53;13.47;;;11.60;99.90;;;11.60;70.34;94760.06;5050172;28;20618;-57
2022/04/22 00:49:53;;;;;;;22.93;13.60;;;11.60;99.90;;;11.62;71.39;94765.19;5052183;28;20843;-56
2022/04/22 00:52:20;;;;;;;31.50;14.90;;;11.60;99.90;;;11.63;71.16;94766.81;5059807;28;20961;-57
2022/04/22 00:54:48;;;;;;;21.43;14.00;;;11.60;99.90;;;11.63;71.29;94754.50;5060756;28;20853;-56
2022/04/22 00:57:18;;;;;;;31.73;14.50;;;11.60;99.90;;;11.65;70.99;94749.06;5051023;28;20493;-56
2022/04/22 00:59:45;;;;;;;26.43;14.97;;;11.60;99.90;;;11.64;70.83;94739.50;5055801;28;20475;-56
2022/04/22 01:02:12;;;;;;;22.63;13.63;;;11.60;99.90;;;11.63;70.91;94727.31;5055573;28;20466;-58
2022/04/22 01:10:10;;;;;;;20.60;12.80;;;11.60;99.90;;;11.58;70.94;94713.75;5054949;28;20477;-57
2022/04/22 01:12:37;;;;;;;21.63;14.60;;;11.60;99.90;;;11.57;70.67;94706.81;5052352;28;20446;-57
2022/04/22 01:15:06;;;;;;;21.63;13.00;;;11.60;99.90;;;11.55;70.87;94691.16;5049138;28;20476;-54
2022/04/22 01:17:33;;;;;;;19.63;12.30;;;11.60;99.90;;;11.52;70.65;94694.09;5054038;28;21057;-57
2022/04/22 01:20:00;;;;;;;20.57;13.23;;;11.60;99.90;;;11.51;71.11;94686.34;5053903;28;20483;-57
2022/04/22 01:22:29;;;;;;;19.40;12.77;;;11.50;99.90;;;11.48;70.88;94690.94;5060907;28;20486;-57
2022/04/22 01:24:59;;;;;;;16.30;11.30;;;11.50;99.90;;;11.47;70.97;94689.28;5054748;28;20477;-57
2022/04/22 01:27:29;;;;;;;17.67;12.37;;;11.50;99.90;;;11.46;71.44;94685.03;5055135;28;20486;-58
2022/04/22 01:29:57;;;;;;;22.63;14.20;;;11.50;99.90;;;11.45;71.38;94678.09;5055040;28;20936;-56
2022/04/22 01:32:27;;;;;;;20.13;12.40;;;11.50;99.90;;;11.44;71.41;94673.78;5052771;28;20550;-56
2022/04/22 01:34:54;;;;;;;20.67;13.83;;;11.50;99.90;;;11.43;71.37;94666.88;5055257;28;20498;-55
2022/04/22 01:37:21;;;;;;;20.87;13.03;;;11.40;99.90;;;11.41;71.43;94666.19;5056479;28;20470;-57
2022/04/22 01:39:50;;;;;;;22.93;11.23;;;11.40;99.90;;;11.40;71.44;94666.34;5054650;28;20952;-56
2022/04/22 01:42:18;;;;;;;17.20;11.90;;;11.40;99.90;;;11.40;71.26;94661.06;5056471;28;20971;-57
2022/04/22 01:44:46;;;;;;;20.23;12.80;;;11.40;99.90;;;11.40;71.50;94667.19;5057373;28;20486;-56
2022/04/22 01:47:14;;;;;;;16.70;12.07;;;11.40;99.90;;;11.41;71.74;94676.72;5061454;28;20573;-64
2022/04/22 01:49:42;;;;;;;18.20;10.77;;;11.40;99.90;;;11.42;71.44;94667.84;5057565;28;20821;-56
2022/04/22 01:52:09;;;;;;;21.60;12.80;;;11.40;99.90;;;11.44;71.56;94681.69;5061907;28;21009;-55
2022/04/22 01:54:36;;;;;;;18.57;13.40;;;11.40;99.90;;;11.46;71.99;94676.28;5061827;28;20489;-57
2022/04/22 01:57:06;;;;;;;20.57;12.40;;;11.50;99.90;;;11.47;72.11;94691.91;5058546;28;20868;-58
2022/04/22 01:59:33;;;;;;;26.23;11.87;;;11.50;99.90;;;11.50;72.19;94692.63;5054994;28;20905;-57
2022/04/22 02:02:00;;;;;;;17.70;12.43;;;11.50;99.90;;;11.50;72.42;94696.06;5062613;28;20463;-56
2022/04/22 02:04:27;;;;;;;15.67;12.30;;;11.50;99.90;;;11.50;72.29;94708.41;5059898;28;20553;-55
2022/04/22 02:06:55;;;;;;;17.83;13.20;;;11.50;99.90;;;11.50;72.20;94718.97;5056186;28;20484;-56
2022/04/22 02:09:22;;;;;;;20.00;13.07;;;11.50;99.90;;;11.49;72.11;94739.19;5054243;28;20486;-56
2022/04/22 02:11:49;;;;;;;23.90;14.17;;;11.50;99.90;;;11.47;72.22;94739.31;5058508;28;20501;-57
2022/04/22 02:14:19;;;;;;;19.57;12.77;;;11.50;99.90;;;11.47;71.96;94728.78;5057673;28;20467;-58
2022/04/22 02:16:46;;;;;;;17.23;11.67;;;11.50;99.90;;;11.46;72.46;94727.16;5063953;28;20520;-58
2022/04/22 02:19:13;;;;;;;13.97;11.33;;;11.50;99.90;;;11.46;72.55;94729.78;5062519;28;20956;-55
2022/04/22 02:21:40;;;;;;;18.73;13.50;;;11.50;99.90;;;11.45;72.33;94725.50;5061731;28;20502;-58
2022/04/22 02:24:08;;;;;;;22.07;13.97;;;11.50;99.90;;;11.46;72.29;94721.88;5058482;28;20466;-56
2022/04/22 02:29:18;;;;;;;15.50;12.80;;;11.50;99.90;;;11.46;72.70;94699.97;5057792;28;20444;-57
2022/04/22 02:31:45;;;;;;;23.63;16.07;;;11.50;99.90;;;11.43;72.97;94695.84;5061664;28;21049;-57
2022/04/22 02:34:12;;;;;;;22.33;15.87;;;11.40;99.90;;;11.38;72.72;94690.19;5063917;28;20459;-55
2022/04/22 02:36:41;;;;;;;21.97;16.27;;;11.40;99.90;;;11.34;72.89;94683.56;5055799;28;20487;-57
2022/04/22 02:39:08;;;;;;;23.53;18.40;;;11.30;99.90;;;11.28;73.41;94678.91;5056549;28;20472;-56
2022/04/22 02:47:07;;;;;;;35.17;20.63;;;11.20;99.90;;;11.09;72.95;94678.06;5058858;28;20906;-56
2022/04/22 02:49:34;;;;;;;28.10;19.30;;;11.10;99.90;;;11.08;72.74;94692.19;5058060;28;20851;-57
2022/04/22 02:52:02;;;;;;;28.97;19.67;;;11.10;99.90;;;11.08;72.94;94694.00;5054893;28;20460;-56
2022/04/22 02:54:30;;;;;;;27.07;19.20;;;11.10;99.90;;;11.08;73.01;94694.00;5058793;28;20569;-57
2022/04/22 02:56:57;;;;;;;22.17;17.60;;;11.10;99.90;;;11.08;73.08;94691.34;5063564;28;20459;-57
2022/04/22 02:59:26;;;;;;;26.73;19.50;;;11.10;99.90;;;11.09;73.13;94675.41;5058645;28;20458;-57
2022/04/22 03:01:54;;;;;;;24.30;18.13;;;11.10;99.90;;;11.10;72.68;94684.13;5056445;28;20536;-57
2022/04/22 03:04:21;;;;;;;24.00;16.83;;;11.10;99.90;;;11.07;72.82;94693.16;5058633;28;20497;-56
2022/04/22 03:06:48;;;;;;;26.57;18.03;;;11.10;99.90;;;11.05;72.97;94689.03;5058971;28;20564;-56
2022/04/22 03:09:15;;;;;;;28.17;17.47;;;11.00;99.90;;;11.03;72.96;94683.91;5056757;28;20459;-55
2022/04/22 03:11:43;;;;;;;26.30;17.90;;;11.00;99.90;;;11.03;73.17;94686.53;5062116;28;21125;-56
2022/04/22 03:14:10;;;;;;;26.07;18.07;;;11.00;99.90;;;11.04;73.23;94698.69;5057021;28;20488;-55
2022/04/22 03:16:39;;;;;;;29.23;17.20;;;11.00;99.90;;;11.04;73.22;94690.81;5057488;28;20479;-55
2022/04/22 03:19:06;;;;;;;35.20;18.87;;;11.00;99.90;;;11.04;73.17;94684.72;5054811;28;20981;-55
2022/04/22 03:21:34;;;;;;;25.90;17.50;;;11.00;99.90;;;11.03;73.22;94702.31;5058694;28;20468;-56
2022/04/22 03:24:01;;;;;;;26.87;18.93;;;11.00;99.90;;;11.02;73.40;94711.19;5059203;28;20455;-55
2022/04/22 03:26:28;;;;;;;28.60;19.03;;;11.00;99.90;;;11.03;73.57;94710.22;5057925;28;21014;-57
2022/04/22 03:28:57;;;;;;;29.67;18.27;;;11.00;99.90;;;11.04;73.69;94717.13;5057361;28;20828;-57
2022/04/22 03:31:24;;;;;;;22.40;17.03;;;11.00;99.90;;;11.04;73.48;94717.13;5061957;28;20472;-56
2022/04/22 03:33:52;;;;;;;28.20;17.80;;;11.00;99.90;;;11.05;73.62;94724.06;5057912;28;20455;-56
2022/04/22 03:36:20;;;;;;;28.17;17.33;;;11.00;99.90;;;11.06;73.55;94707.28;5056049;28;21124;-56
2022/04/22 03:38:47;;;;;;;28.40;18.10;;;11.00;99.90;;;11.06;73.67;94717.81;5054316;28;20447;-58
2022/04/22 03:41:14;;;;;;;23.67;16.60;;;11.10;99.90;;;11.06;73.75;94715.19;5056002;28;20548;-57
2022/04/22 03:43:42;;;;;;;27.13;17.70;;;11.10;99.90;;;11.08;73.74;94723.75;5055894;28;20978;-58
2022/04/22 03:46:09;;;;;;;26.40;17.40;;;11.10;99.90;;;11.11;73.83;94725.28;5054573;28;20483;-58
2022/04/22 03:48:36;;;;;;;25.37;17.30;;;11.10;99.90;;;11.13;73.86;94721.50;5052957;28;20454;-59
2022/04/22 03:51:05;;;;;;;24.70;17.80;;;11.10;99.90;;;11.13;73.66;94726.78;5059533;28;20511;-58
2022/04/22 03:53:34;;;;;;;28.27;17.63;;;11.10;99.90;;;11.15;73.75;94725.81;5066808;28;20875;-56
2022/04/22 03:58:10;;;;;;;25.57;18.17;;;11.10;99.90;;;11.14;73.54;94727.63;5051140;28;21037;-58
2022/04/22 03:58:50;;;;;;;22.97;16.60;;;11.10;99.90;;;11.12;73.28;94724.28;5053198;28;20993;-56
2022/04/22 04:01:18;;;;;;;29.70;18.33;;;11.10;99.90;;;11.15;73.34;94728.44;5062263;28;20615;-58
2022/04/22 04:03:45;;;;;;;27.27;17.03;;;11.10;99.90;;;11.15;73.68;94725.81;5054337;28;20452;-58
2022/04/22 04:06:14;;;;;;;24.13;16.10;;;11.10;99.90;;;11.17;73.73;94726.47;5056186;28;21007;-56
2022/04/22 04:15:57;;;;;;;28.30;17.23;;;11.20;99.90;;;11.19;73.81;94719.28;5055003;28;20962;-56
2022/04/22 04:16:57;;;;;;;29.37;17.77;;;11.20;99.90;;;11.19;73.69;94704.31;5057747;28;20844;-57
2022/04/22 04:24:55;;;;;;;23.93;16.53;;;11.20;99.90;;;11.23;74.07;94710.94;5056347;28;20566;-56
2022/04/22 04:27:23;;;;;;;29.03;15.87;;;11.20;99.90;;;11.22;73.72;94697.94;5056172;28;20495;-56
2022/04/22 04:29:50;;;;;;;29.77;17.73;;;11.20;99.90;;;11.22;73.51;94703.19;5058385;28;20471;-55
2022/04/22 04:32:18;;;;;;;23.27;16.83;;;11.20;99.90;;;11.20;73.45;94705.13;5049548;28;21396;-55
2022/04/22 04:34:45;;;;;;;28.80;19.00;;;11.20;99.90;;;11.19;73.78;94711.38;5052663;28;20573;-57
2022/04/22 04:37:14;;;;;;;27.43;18.10;;;11.20;99.90;;;11.18;73.76;94705.28;5056018;28;20465;-56
2022/04/22 04:39:42;;;;;;;33.57;20.97;;;11.20;99.90;;;11.16;73.91;94709.06;5060799;28;20649;-57
2022/04/22 04:42:10;;;;;;;27.83;19.53;;;11.20;99.90;;;11.14;74.27;94688.13;5054175;28;20452;-57
2022/04/22 04:44:37;;;;;;;26.10;15.80;;;11.10;99.90;;;11.16;74.08;94709.06;5055441;28;20542;-57
2022/04/22 04:47:05;;;;;;;23.07;16.47;;;11.10;99.90;;;11.17;73.97;94689.63;5058218;28;20493;-56
2022/04/22 04:49:33;;;;;;;28.67;16.77;;;11.20;99.90;;;11.18;73.94;94717.63;5048986;28;20952;-58
2022/04/22 04:52:00;;;;;;;21.23;15.07;;;11.20;99.90;;;11.18;74.08;94700.00;5057467;28;20828;-55
2022/04/22 04:54:28;;;;;;;29.10;15.63;;;11.20;99.90;;;11.19;73.73;94698.22;5059504;28;20454;-55
2022/04/22 04:56:56;;;;;;;25.63;14.47;;;11.20;99.90;;;11.20;73.61;94691.97;5059501;28;20458;-55
2022/04/22 04:59:23;;;;;;;23.83;15.90;;;11.20;99.90;;;11.21;73.32;94689.19;5054216;28;20993;-57
2022/04/22 05:01:50;;;;;;;20.10;14.50;;;11.20;99.90;;;11.21;73.38;94696.25;5059816;28;20459;-59
2022/04/22 05:04:17;;;;;;;20.07;13.60;;;11.20;99.90;;;11.24;73.69;94680.16;5059984;28;20462;-57
2022/04/22 05:06:45;;;;;;;21.30;14.60;;;11.20;99.90;;;11.26;73.47;94684.31;5058549;28;20495;-56
2022/04/22 05:09:12;;;;;;;18.23;13.50;;;11.20;99.90;;;11.28;73.22;94666.56;5055697;28;20529;-57
2022/04/22 05:11:41;;;;;;;16.33;12.60;;;11.30;99.90;;;11.30;73.18;94663.78;5054837;28;20475;-57
2022/04/22 05:14:08;;;;;;;21.40;14.60;;;11.30;99.90;;;11.29;73.20;94670.00;5057750;28;20466;-56
2022/04/22 05:16:35;;;;;;;18.10;13.53;;;11.30;99.90;;;11.29;73.32;94659.47;5057963;28;20586;-55
2022/04/22 05:19:03;;;;;;;20.30;13.70;;;11.30;99.90;;;11.28;73.00;94652.56;5057128;28;20474;-56
2022/04/22 05:21:30;;;;;;;16.47;13.20;;;11.30;99.90;;;11.25;72.92;94640.53;5059098;28;20501;-57
2022/04/22 05:23:57;;;;;;;17.03;14.33;;;11.30;99.90;;;11.25;72.99;94624.72;5058786;28;20451;-57
2022/04/22 05:26:24;;;;;;;23.77;14.80;;;11.30;99.90;;;11.25;73.14;94616.03;5051743;28;20496;-55
2022/04/22 05:28:53;;;;;;;21.70;14.80;;;11.20;99.90;;;11.22;73.02;94614.50;5058746;28;20466;-56
2022/04/22 05:34:13;;;;;;;21.83;13.30;;;11.20;99.90;;;11.17;72.70;94600.13;5042325;28;20520;-55
2022/04/22 05:36:41;;;;;;;22.00;13.43;;;11.20;99.90;;;11.13;72.91;94584.63;5062795;28;20857;-56
2022/04/22 05:39:09;;;;;;;19.93;14.90;;;11.10;99.90;;;11.15;73.29;94565.25;5054142;28;20944;-57
2022/04/22 05:41:36;;;;;;;20.43;13.20;;;11.10;99.90;;;11.12;72.97;94540.88;5053653;28;20830;-54
2022/04/22 05:44:06;;;;;;;20.73;14.20;;;11.10;99.90;;;11.12;73.11;94519.84;5053282;28;20486;-57
2022/04/22 05:46:33;;;;;;;18.40;12.93;;;11.10;99.90;;;11.15;72.81;94533.66;5050606;28;20511;-57
2022/04/22 05:49:00;;;;;;;17.63;13.20;;;11.10;99.90;;;11.17;72.29;94514.09;5056704;28;20513;-54
2022/04/22 05:51:27;;;;;;;17.80;14.03;;;11.20;99.90;;;11.18;72.45;94513.09;5053791;28;20494;-56
2022/04/22 05:53:55;;;;;;;16.90;11.33;;;11.10;99.90;;;11.20;71.94;94512.97;5053258;28;20464;-57
2022/04/22 05:56:22;;;;;;;15.97;11.93;;;11.20;99.90;;;11.23;71.71;94505.59;5055485;28;20498;-57
2022/04/22 05:58:49;;;;;;;18.97;10.20;;;11.20;99.90;;;11.24;71.64;94507.22;5057518;28;20524;-55
2022/04/22 06:01:18;;;;;;;14.37;11.60;;;11.20;99.90;;;11.26;71.29;94520.25;5054476;28;21138;-57
2022/04/22 06:03:45;;;;;;;17.77;11.23;;;11.30;99.90;;;11.27;71.08;94508.75;5049785;28;20974;-58
2022/04/22 06:06:12;;;;;;;14.60;10.27;;;11.20;99.90;;;11.29;71.26;94504.16;5058097;28;20987;-57
2022/04/22 06:11:24;;;;;;;16.10;11.30;;;11.30;99.90;;;11.39;70.75;94509.34;5051376;28;20985;-56
2022/04/22 06:13:51;;;;;;;22.43;9.97;;;11.40;99.90;;;11.42;70.68;94512.47;5053467;28;21007;-54
2022/04/22 06:16:20;;;;;;;12.20;10.30;;;11.40;99.90;;;11.45;70.18;94516.63;5056055;28;20490;-57
2022/04/22 06:18:47;;;;;;;18.00;12.17;;;11.50;99.90;;;11.50;70.10;94505.63;5051659;28;20460;-55
2022/04/22 06:21:14;;;;;;;15.37;10.60;;;11.50;99.90;;;11.54;70.13;94496.41;5060561;28;20556;-57
2022/04/22 06:23:42;;;;;;;17.10;10.50;;;11.50;99.90;;;11.57;69.96;94506.66;5057674;28;20475;-58
2022/04/22 06:26:09;;;;;;;19.47;10.00;;;11.60;99.90;;;11.60;69.66;94501.91;5058809;28;20479;-58
2022/04/22 06:28:36;;;;;;;14.53;11.40;;;11.60;99.70;;;11.66;69.92;94516.25;5054813;28;20495;-56
2022/04/22 06:31:04;;;;;;;12.00;10.07;;;11.60;99.90;;;11.76;69.71;94516.16;5062042;28;20489;-55
2022/04/22 06:33:33;;;;;;;15.03;10.33;;;11.70;99.80;;;11.89;69.67;94500.75;5062896;28;20844;-56
2022/04/22 06:36:03;;;;;;;13.97;10.13;;;11.80;99.80;;;12.04;69.20;94519.47;5066204;28;20475;-59
2022/04/22 06:38:30;;;;;;;11.70;9.73;;;11.90;99.80;;;12.18;68.98;94516.22;5054963;28;20490;-57
2022/04/22 06:46:29;;;;;;;14.30;10.30;;;12.40;99.10;;;12.57;67.87;94533.34;5061307;28;20482;-56
2022/04/22 06:48:58;;;;;;;12.93;10.20;;;12.50;98.80;;;12.71;67.69;94522.16;5055347;28;20490;-58
2022/04/22 06:51:26;;;;;;;13.40;10.70;;;12.60;98.70;;;12.85;67.22;94522.53;5057157;28;21020;-57
2022/04/22 06:53:54;;;;;;;14.43;9.90;;;12.80;98.50;;;13.01;67.04;94516.44;5061100;28;20963;-57
2022/04/22 06:56:26;;;;;;;15.37;10.10;;;12.90;98.20;;;13.18;66.57;94507.53;5054953;28;21017;-58
2022/04/22 06:58:54;;;;;;;22.10;14.10;;;13.00;97.90;;;13.34;66.24;94501.47;5060113;28;20979;-56
2022/04/22 07:01:22;;;;;;;22.03;9.93;;;13.20;97.80;;;13.53;66.55;94494.19;5057666;28;20472;-54
2022/04/22 07:03:49;;;;;;;11.60;9.53;;;13.40;98.00;;;13.75;65.98;94482.09;5054712;28;20463;-57
2022/04/22 07:06:19;;;;;;;17.47;10.57;;;13.60;97.70;;;13.96;65.20;94502.69;5058097;28;20587;-63
2022/04/22 07:08:47;;;;;;;13.67;9.87;;;13.80;97.10;;;14.12;64.09;94504.47;5058846;28;21040;-59
2022/04/22 07:11:18;;;;;;;13.33;8.97;;;13.90;96.10;;;14.23;64.56;94495.31;5058492;28;20483;-61
2022/04/22 07:13:45;;;;;;;10.27;8.13;;;14.10;96.50;;;14.46;63.90;94490.09;5060075;28;20487;-58
2022/04/22 07:16:14;;;;;;;15.17;10.20;;;14.30;95.90;;;14.61;63.60;94482.25;5059627;28;20519;-56
2022/04/22 07:18:42;;;;;;;15.93;9.00;;;14.50;95.80;;;14.79;63.16;94471.41;5048017;28;21033;-57
2022/04/22 07:21:10;;;;;;;9.20;8.10;;;14.60;95.50;;;14.99;62.49;94480.53;5056199;28;20502;-59
2022/04/22 07:23:40;;;;;;;9.10;8.10;;;14.80;95.00;;;15.15;61.96;94490.22;5059231;28;20464;-56
2022/04/22 07:26:09;;;;;;;11.20;8.30;;;15.00;94.50;;;15.33;61.71;94473.16;5059533;28;20483;-59
2022/04/22 07:28:38;;;;;;;12.60;8.77;;;15.20;94.40;;;15.58;61.49;94479.06;5057948;28;20602;-58
2022/04/22 07:31:05;;;;;;;11.30;7.80;;;15.40;94.40;;;15.85;60.68;94485.63;5053607;28;20873;-57
2022/04/22 07:33:33;;;;;;;10.43;7.70;;;15.60;93.60;;;16.05;60.24;94482.41;5050089;28;20463;-58
2022/04/22 07:36:01;;;;;;;13.50;7.43;;;15.90;93.30;;;16.34;59.91;94499.34;5056660;28;21045;-55
2022/04/22 07:38:29;;;;;;;6.53;5.93;;;16.10;93.10;;;16.56;58.88;94479.81;5058030;28;20463;-57
2022/04/22 07:40:58;;;;;;;16.83;6.40;;;16.40;92.10;;;16.77;58.61;94473.72;5056058;28;20531;-58
2022/04/22 07:48:57;;;;;;;9.43;6.27;;;16.90;90.10;;;17.21;56.86;94466.59;5056739;28;21106;-56
2022/04/22 07:51:25;;;;;;;11.40;6.97;;;17.00;89.70;;;17.42;56.28;94465.78;5062668;28;20471;-59
2022/04/22 07:53:53;;;;;;;6.70;6.00;;;17.20;89.50;;;17.62;55.82;94470.44;5057780;28;20444;-57
2022/04/22 07:56:22;;;;;;;9.20;6.20;;;17.40;89.00;;;17.95;55.43;94480.50;5058148;28;20583;-57
2022/04/22 07:58:49;;;;;;;9.30;6.37;;;17.70;87.90;;;18.16;54.36;94483.09;5056041;28;20443;-57
2022/04/22 08:01:17;;;;;;;10.60;6.10;;;17.90;86.50;;;18.23;53.71;94480.47;5053415;28;20994;-58
2022/04/22 08:03:44;;;;;;;7.40;6.67;;;18.00;84.80;;;18.21;53.98;94496.63;5055473;28;20468;-55
2022/04/22 08:06:12;;;;;;;7.07;6.10;;;18.00;84.00;;;18.14;53.11;94501.13;5054859;28;20494;-57
2022/04/22 08:08:40;;;;;;;8.37;6.70;;;18.00;82.80;;;18.14;53.88;94500.28;5055866;28;20502;-56
2022/04/22 08:11:08;;;;;;;12.67;6.00;;;18.00;82.80;;;18.27;53.67;94511.81;5052914;28;20468;-59
2022/04/22 08:13:36;;;;;;;11.50;5.23;;;18.10;83.20;;;18.38;51.17;94522.94;5057830;28;20451;-57
2022/04/22 08:16:04;;;;;;;10.53;6.27;;;18.30;78.90;;;18.45;51.92;94519.28;5050131;28;20886;-57
2022/04/22 08:18:31;;;;;;;11.37;5.67;;;18.30;78.80;;;18.64;51.77;94503.59;5054073;28;20512;-56
2022/04/22 08:20:59;;;;;;;9.63;5.97;;;18.50;79.50;;;18.92;52.34;94479.53;5057520;28;20498;-57
2022/04/22 08:23:26;;;;;;;15.30;6.10;;;18.70;80.80;;;19.25;51.51;94476.09;5056345;28;20529;-57
2022/04/22 08:25:53;;;;;;;13.13;5.70;;;19.00;80.00;;;19.49;50.78;94468.56;5058989;28;20474;-57
2022/04/22 08:28:20;;;;;;;11.57;5.57;;;19.30;78.10;;;19.74;49.62;94470.59;5056878;28;20486;-57
2022/04/22 08:30:49;;;;;;;7.57;5.40;;;19.50;76.30;;;19.99;49.71;94466.28;5057794;28;20486;-57
2022/04/22 08:33:16;;;;;;;6.80;5.70;;;19.70;75.80;;;20.27;49.75;94472.38;5053529;28;20510;-55
2022/04/22 08:35:43;;;;;;;9.13;5.30;;;20.00;75.70;;;20.54;49.16;94467.75;5061625;28;20569;-57
2022/04/22 08:38:11;;;;;;;10.53;5.87;;;20.20;74.30;;;20.74;48.73;94455.19;5056504;28;20474;-56
2022/04/22 08:40:38;;;;;;;8.27;5.83;;;20.50;73.80;;;20.83;47.82;94442.38;5057998;28;20903;-55
2022/04/22 08:43:06;;;;;;;7.80;5.50;;;20.60;71.30;;;20.89;47.32;94446.88;5049636;28;20458;-55
2022/04/22 08:45:34;;;;;;;10.23;5.83;;;20.70;69.80;;;20.94;47.98;94451.56;5056398;28;20471;-54
2022/04/22 08:50:51;;;;;;;9.70;6.13;;;20.80;70.40;;;21.23;47.61;94439.47;5055949;28;20566;-56
2022/04/22 08:53:23;;;;;;;5.90;4.70;;;21.00;70.60;;;21.35;45.94;94447.63;5051788;28;20557;-56
2022/04/22 08:55:55;;;;;;;6.13;5.40;;;21.00;66.30;;;21.30;46.46;94445.59;5056771;28;20495;-54
2022/04/22 08:58:23;;;;;;;4.77;4.47;;;21.10;67.10;;;21.29;46.37;94440.47;5056072;28;20975;-56
2022/04/22 09:00:50;;;;;;;5.53;5.03;;;21.10;66.90;;;21.38;46.54;94441.81;5050102;28;20479;-58
2022/04/22 09:03:19;;;;;;;11.80;5.30;;;21.20;66.30;;;21.39;45.83;94427.41;5052974;28;20558;-56
2022/04/22 09:05:47;;;;;;;7.73;5.50;;;21.20;64.80;;;21.36;45.85;94414.44;5054514;28;20483;-56
2022/04/22 09:08:14;;;;;;;5.73;5.03;;;21.20;65.20;;;21.38;46.36;94414.22;5057064;28;20565;-56
2022/04/22 09:10:42;;;;;;;8.30;5.60;;;21.20;65.70;;;21.52;46.21;94406.94;5054853;28;20483;-57
2022/04/22 09:13:10;;;;;;;5.80;5.27;;;21.20;65.70;;;21.68;46.08;94409.06;5054716;28;20447;-56
2022/04/22 09:15:39;;;;;;;5.90;4.67;;;21.40;65.40;;;21.75;45.38;94409.00;5058182;28;20474;-58
2022/04/22 09:18:11;;;;;;;9.03;5.57;;;21.50;63.60;;;21.83;44.68;94411.41;5056410;28;20462;-58
2022/04/22 09:20:39;;;;;;;20.83;5.93;;;21.50;62.10;;;21.87;45.08;94406.44;5051556;28;21019;-56
2022/04/22 09:23:29;;;;;;;5.20;4.53;;;21.60;62.50;;;21.93;45.28;94402.88;5055303;28;20465;-60
2022/04/22 09:25:56;;;;;;;5.30;4.80;;;21.60;63.80;;;22.00;45.12;94417.03;5058308;28;20509;-55
2022/04/22 09:28:24;;;;;;;5.37;4.90;;;21.70;62.80;;;21.98;44.56;94403.84;5054427;28;20537;-57
2022/04/22 09:30:59;;;;;;;15.77;5.40;;;21.70;62.20;;;22.03;44.32;94395.97;5051269;28;21021;-56
2022/04/22 09:33:26;;;;;;;6.77;4.53;;;21.70;61.70;;;22.08;44.37;94397.97;5056554;28;21995;-54
2022/04/22 09:44:54;;;;;;;6.10;4.90;;;21.80;58.40;;;21.95;44.11;94388.22;5055555;28;20500;-56
2022/04/22 09:47:21;;;;;;;9.10;5.13;;;21.70;59.40;;;21.91;44.21;94383.53;5051725;28;20733;-55
2022/04/22 09:49:48;;;;;;;13.47;4.70;;;21.70;59.50;;;21.92;44.76;94387.84;5054156;28;20565;-54
2022/04/22 09:52:24;;;;;;;4.70;3.90;;;21.70;60.50;;;21.98;44.13;94370.88;5059087;28;20455;-56
2022/04/22 09:54:57;;;;;;;10.23;4.20;;;21.70;60.60;;;22.07;43.88;94368.72;5051736;28;20470;-57
2022/04/22 09:57:24;;;;;;;12.73;4.23;;;21.70;60.30;;;22.10;43.72;94361.06;5054561;28;20696;-55
2022/04/22 09:59:52;;;;;;;6.07;3.87;;;21.80;59.70;;;22.11;43.49;94356.53;5056339;28;20540;-57
2022/04/22 10:02:24;;;;;;;5.10;4.30;;;21.80;58.60;;;22.10;43.98;94349.53;5055641;28;20562;-55
2022/04/22 10:04:54;;;;;;;15.07;4.63;;;21.80;59.40;;;22.05;43.72;94350.22;5050977;28;20510;-55
2022/04/22 10:07:23;;;;;;;11.57;4.70;;;21.80;59.20;;;21.98;43.58;94330.72;5058605;28;20563;-55
2022/04/22 10:09:53;;;;;;;5.50;4.63;;;21.70;59.10;;;21.95;43.44;94333.84;5058067;28;20494;-56
2022/04/22 10:12:20;;;;;;;12.50;5.17;;;21.70;59.00;;;21.95;43.67;94336.50;5062933;28;20538;-57
2022/04/22 10:14:48;;;;;;;14.77;4.03;;;21.70;58.80;;;21.94;43.43;94325.00;5058364;28;20720;-56
2022/04/22 10:17:16;;;;;;;4.43;4.00;;;21.60;58.40;;;21.98;43.74;94323.50;5061483;28;20446;-55
2022/04/22 10:19:44;;;;;;;6.10;4.30;;;21.70;59.20;;;22.03;43.47;94317.47;5062807;28;20455;-54
2022/04/22 10:22:12;;;;;;;7.33;4.17;;;21.70;58.80;;;22.04;43.73;94311.06;5056026;28;20955;-59
2022/04/22 10:24:41;;;;;;;8.27;4.10;;;21.70;59.60;;;22.03;43.59;94314.81;5055699;28;20970;-57
2022/04/22 10:27:08;;;;;;;10.40;4.50;;;21.70;58.90;;;21.97;43.46;94311.16;5060666;28;20989;-60
2022/04/22 10:29:36;;;;;;;13.17;4.33;;;21.70;58.80;;;21.93;43.79;94309.16;5058795;28;20486;-57
2022/04/22 10:32:05;;;;;;;6.23;4.70;;;21.70;58.70;;;21.84;44.11;94309.47;5050838;28;20486;-58
2022/04/22 10:34:40;;;;;;;6.00;4.40;;;21.60;58.90;;;21.78;44.14;94307.69;5058476;28;20447;-59
2022/04/22 10:37:16;;;;;;;11.97;4.90;;;21.50;59.40;;;21.77;43.53;94295.31;5060585;28;20577;-56
2022/04/22 10:39:44;;;;;;;6.50;4.17;;;21.50;58.80;;;21.75;44.01;94302.78;5057209;28;20541;-56
2022/04/22 10:42:15;;;;;;;11.43;4.23;;;21.50;59.50;;;21.71;44.20;94304.25;5055647;28;20956;-56
2022/04/22 10:47:39;;;;;;;6.77;3.97;;;21.40;59.50;;;21.71;44.54;94301.56;5058277;28;20436;-58
2022/04/22 10:50:39;;;;;;;11.47;5.47;;;21.40;59.80;;;21.78;43.99;94306.84;5054136;28;20616;-56
2022/04/22 10:53:07;;;;;;;8.50;4.07;;;21.50;60.50;;;21.84;44.61;94301.44;5056682;28;20529;-54
2022/04/22 10:55:37;;;;;;;5.00;3.70;;;21.50;59.80;;;21.88;44.36;94293.75;5060538;28;20479;-55
2022/04/22 10:58:27;;;;;;;7.47;4.00;;;21.60;59.90;;;21.89;43.81;94303.44;5060151;28;20949;-58
2022/04/22 11:00:57;;;;;;;5.50;3.80;;;21.60;58.70;;;21.83;42.87;94297.09;5058285;28;20489;-57
2022/04/22 11:03:25;;;;;;;3.63;3.30;;;21.60;57.40;;;21.79;43.53;94293.22;5057408;28;20451;-57
2022/04/22 11:06:02;;;;;;;7.63;4.40;;;21.60;58.60;;;21.83;43.65;94288.25;5057054;28;20496;-56
2022/04/22 11:08:31;;;;;;;6.43;4.30;;;21.50;58.40;;;21.79;43.48;94277.16;5054166;28;20552;-55
2022/04/22 11:11:20;;;;;;;14.43;4.30;;;21.50;58.40;;;21.77;43.75;94283.81;5057762;28;20475;-57